AVA3110 SKPS-SKBO
Flight info
| Callsign | AVA3110 |
|---|---|
| Flight time | 1h 7m |
| Altitude | 35000 |
| Route | TITGU GIR |
| Aircraft | A32N/M-SDE2E3FGHIJ1RWXY/L |
Departure
| Time | 2026-04-25 01:30 |
|---|---|
| Airport | Antonio Nariño Airport (SKPS) |
Arrival
| Time | 2026-04-25 02:37 |
|---|---|
| Airport | El Dorado International Airport (SKBO) |
| Time | Latitude | Longitude | Altitude | Speed | Heading |
|---|---|---|---|---|---|
| 2026-04-25 01:09 | 1.39511 | -77.29009 | 5919 ft | 0 kts | 105° |
| 2026-04-25 01:21 | 1.39511 | -77.29008 | 5919 ft | 2 kts | 105° |
| 2026-04-25 01:22 | 1.39516 | -77.29022 | 5922 ft | 2 kts | 129° |
| 2026-04-25 01:22 | 1.39527 | -77.29031 | 5923 ft | 2 kts | 153° |
| 2026-04-25 01:22 | 1.39542 | -77.29036 | 5922 ft | 2 kts | 177° |
| 2026-04-25 01:22 | 1.39555 | -77.29034 | 5921 ft | 0 kts | 199° |
| 2026-04-25 01:23 | 1.39557 | -77.29034 | 5921 ft | 0 kts | 200° |
| 2026-04-25 01:23 | 1.39556 | -77.29034 | 5921 ft | 0 kts | 200° |
| 2026-04-25 01:25 | 1.39558 | -77.29034 | 5921 ft | 0 kts | 200° |
| 2026-04-25 01:25 | 1.39545 | -77.29037 | 5922 ft | 3 kts | 199° |
| 2026-04-25 01:26 | 1.39518 | -77.29053 | 5924 ft | 5 kts | 233° |
| 2026-04-25 01:26 | 1.39520 | -77.29103 | 5924 ft | 9 kts | 283° |
| 2026-04-25 01:26 | 1.39468 | -77.29150 | 5927 ft | 13 kts | 198° |
| 2026-04-25 01:26 | 1.39362 | -77.29180 | 5933 ft | 18 kts | 195° |
| 2026-04-25 01:27 | 1.39229 | -77.29217 | 5939 ft | 18 kts | 195° |
| 2026-04-25 01:27 | 1.39113 | -77.29247 | 5944 ft | 15 kts | 194° |
| 2026-04-25 01:27 | 1.39019 | -77.29270 | 5948 ft | 12 kts | 194° |
| 2026-04-25 01:28 | 1.38841 | -77.29316 | 5954 ft | 13 kts | 194° |
| 2026-04-25 01:28 | 1.38750 | -77.29342 | 5957 ft | 13 kts | 197° |
| 2026-04-25 01:28 | 1.38690 | -77.29342 | 5959 ft | 7 kts | 158° |
| 2026-04-25 01:28 | 1.38680 | -77.29351 | 5959 ft | 3 kts | 309° |
| 2026-04-25 01:29 | 1.38704 | -77.29350 | 5958 ft | 0 kts | 17° |
| 2026-04-25 01:29 | 1.38706 | -77.29350 | 5958 ft | 0 kts | 17° |
| 2026-04-25 01:29 | 1.38706 | -77.29349 | 5958 ft | 0 kts | 17° |
| 2026-04-25 01:29 | 1.38830 | -77.29316 | 5955 ft | 53 kts | 14° |
| 2026-04-25 01:30 | 1.39451 | -77.29153 | 5928 ft | 126 kts | 14° |
| 2026-04-25 01:30 | 1.40474 | -77.28881 | 5991 ft | 170 kts | 15° |
| 2026-04-25 01:30 | 1.41618 | -77.28573 | 6619 ft | 170 kts | 15° |
| 2026-04-25 01:30 | 1.42731 | -77.28268 | 7397 ft | 166 kts | 15° |
| 2026-04-25 01:31 | 1.43831 | -77.27969 | 7968 ft | 168 kts | 15° |
| 2026-04-25 01:31 | 1.45021 | -77.27657 | 8277 ft | 183 kts | 11° |
| 2026-04-25 01:31 | 1.46350 | -77.27542 | 8598 ft | 199 kts | 358° |
| 2026-04-25 01:31 | 1.47773 | -77.27760 | 8999 ft | 211 kts | 348° |
| 2026-04-25 01:32 | 1.49249 | -77.28108 | 9307 ft | 229 kts | 347° |
| 2026-04-25 01:32 | 1.50893 | -77.28513 | 9587 ft | 251 kts | 346° |
| 2026-04-25 01:32 | 1.52635 | -77.28941 | 9966 ft | 268 kts | 346° |
| 2026-04-25 01:32 | 1.54533 | -77.29403 | 10349 ft | 286 kts | 346° |
| 2026-04-25 01:33 | 1.56520 | -77.29884 | 10696 ft | 304 kts | 346° |
| 2026-04-25 01:33 | 1.58660 | -77.30400 | 11016 ft | 322 kts | 346° |
| 2026-04-25 01:33 | 1.60879 | -77.30934 | 11515 ft | 333 kts | 346° |
| 2026-04-25 01:33 | 1.63138 | -77.31477 | 12217 ft | 337 kts | 346° |
| 2026-04-25 01:34 | 1.65441 | -77.32031 | 12916 ft | 340 kts | 346° |
| 2026-04-25 01:34 | 1.67757 | -77.32587 | 13569 ft | 344 kts | 345° |
| 2026-04-25 01:34 | 1.70105 | -77.33141 | 14215 ft | 348 kts | 347° |
| 2026-04-25 01:34 | 1.72538 | -77.33478 | 14884 ft | 352 kts | 355° |
| 2026-04-25 01:35 | 1.74998 | -77.33501 | 15533 ft | 355 kts | 2° |
| 2026-04-25 01:35 | 1.77458 | -77.33196 | 16170 ft | 359 kts | 10° |
| 2026-04-25 01:35 | 1.79884 | -77.32551 | 16786 ft | 363 kts | 18° |
| 2026-04-25 01:35 | 1.82248 | -77.31558 | 17438 ft | 366 kts | 26° |
| 2026-04-25 01:36 | 1.84447 | -77.30260 | 18035 ft | 370 kts | 34° |
| 2026-04-25 01:36 | 1.86540 | -77.28719 | 18491 ft | 377 kts | 37° |
| 2026-04-25 01:36 | 1.88651 | -77.27101 | 18735 ft | 389 kts | 37° |
| 2026-04-25 01:36 | 1.90735 | -77.25333 | 19217 ft | 394 kts | 43° |
| 2026-04-25 01:37 | 1.92627 | -77.23342 | 19801 ft | 396 kts | 49° |
| 2026-04-25 01:37 | 1.94300 | -77.21160 | 20326 ft | 398 kts | 54° |
| 2026-04-25 01:37 | 1.95898 | -77.18877 | 20868 ft | 400 kts | 55° |
| 2026-04-25 01:37 | 1.97462 | -77.16610 | 21398 ft | 402 kts | 55° |
| 2026-04-25 01:38 | 1.99053 | -77.14305 | 21871 ft | 405 kts | 55° |
| 2026-04-25 01:38 | 2.00677 | -77.11958 | 22352 ft | 407 kts | 55° |
| 2026-04-25 01:38 | 2.02276 | -77.09654 | 22836 ft | 409 kts | 56° |
| 2026-04-25 01:38 | 2.03897 | -77.07318 | 23321 ft | 411 kts | 56° |
| 2026-04-25 01:39 | 2.05551 | -77.04934 | 23814 ft | 413 kts | 56° |
| 2026-04-25 01:39 | 2.07182 | -77.02586 | 24288 ft | 415 kts | 56° |
| 2026-04-25 01:39 | 2.08819 | -77.00230 | 24715 ft | 417 kts | 56° |
| 2026-04-25 01:39 | 2.10508 | -76.97799 | 25158 ft | 419 kts | 56° |
| 2026-04-25 01:40 | 2.12205 | -76.95375 | 25580 ft | 422 kts | 56° |
| 2026-04-25 01:40 | 2.13926 | -76.92918 | 25802 ft | 429 kts | 56° |
| 2026-04-25 01:40 | 2.15645 | -76.90456 | 26081 ft | 435 kts | 56° |
| 2026-04-25 01:40 | 2.17377 | -76.87974 | 26474 ft | 436 kts | 56° |
| 2026-04-25 01:41 | 2.19113 | -76.85479 | 26885 ft | 438 kts | 56° |
| 2026-04-25 01:41 | 2.20854 | -76.82974 | 27256 ft | 440 kts | 56° |
| 2026-04-25 01:41 | 2.22596 | -76.80464 | 27607 ft | 442 kts | 57° |
| 2026-04-25 01:41 | 2.24335 | -76.77959 | 27973 ft | 443 kts | 57° |
| 2026-04-25 01:42 | 2.26101 | -76.75414 | 28417 ft | 442 kts | 57° |
| 2026-04-25 01:42 | 2.27835 | -76.72914 | 28920 ft | 440 kts | 57° |
| 2026-04-25 01:42 | 2.29575 | -76.70406 | 29412 ft | 439 kts | 57° |
| 2026-04-25 01:42 | 2.31193 | -76.68072 | 29881 ft | 437 kts | 57° |
| 2026-04-25 01:43 | 2.32814 | -76.65736 | 30363 ft | 435 kts | 58° |
| 2026-04-25 01:43 | 2.34591 | -76.63264 | 30894 ft | 434 kts | 55° |
| 2026-04-25 01:43 | 2.36471 | -76.60922 | 31447 ft | 432 kts | 52° |
| 2026-04-25 01:43 | 2.38469 | -76.58684 | 31988 ft | 429 kts | 50° |
| 2026-04-25 01:44 | 2.40569 | -76.56560 | 32235 ft | 427 kts | 47° |
| 2026-04-25 01:44 | 2.42705 | -76.54522 | 32251 ft | 426 kts | 47° |
| 2026-04-25 01:44 | 2.46997 | -76.50455 | 32280 ft | 429 kts | 47° |
| 2026-04-25 01:45 | 2.49205 | -76.48360 | 32421 ft | 435 kts | 47° |
| 2026-04-25 01:45 | 2.51412 | -76.46268 | 32574 ft | 441 kts | 47° |
| 2026-04-25 01:45 | 2.53625 | -76.44170 | 32866 ft | 443 kts | 47° |
| 2026-04-25 01:45 | 2.55867 | -76.42042 | 33302 ft | 442 kts | 47° |
| 2026-04-25 01:46 | 2.58111 | -76.39914 | 33777 ft | 440 kts | 47° |
| 2026-04-25 01:46 | 2.60297 | -76.37839 | 34233 ft | 438 kts | 47° |
| 2026-04-25 01:46 | 2.62506 | -76.35741 | 34654 ft | 436 kts | 47° |
| 2026-04-25 01:46 | 2.64709 | -76.33645 | 35015 ft | 436 kts | 47° |
| 2026-04-25 01:47 | 2.66922 | -76.31528 | 35326 ft | 437 kts | 47° |
| 2026-04-25 01:47 | 2.69152 | -76.29397 | 35534 ft | 439 kts | 47° |
| 2026-04-25 01:47 | 2.73610 | -76.25150 | 35579 ft | 439 kts | 46° |
| 2026-04-25 01:48 | 2.77834 | -76.21133 | 35598 ft | 439 kts | 47° |
| 2026-04-25 01:48 | 2.80054 | -76.19024 | 35709 ft | 442 kts | 46° |
| 2026-04-25 01:48 | 2.82297 | -76.16891 | 36035 ft | 441 kts | 46° |
| 2026-04-25 01:49 | 2.84508 | -76.14791 | 36341 ft | 441 kts | 46° |
| 2026-04-25 01:49 | 2.86751 | -76.12661 | 36550 ft | 442 kts | 46° |
| 2026-04-25 01:49 | 2.91223 | -76.08411 | 36617 ft | 443 kts | 46° |
| 2026-04-25 01:50 | 2.95675 | -76.04182 | 36700 ft | 443 kts | 46° |
| 2026-04-25 01:50 | 3.00148 | -75.99932 | 36828 ft | 443 kts | 46° |
| 2026-04-25 01:51 | 3.04644 | -75.95659 | 36845 ft | 443 kts | 46° |
| 2026-04-25 01:51 | 3.09097 | -75.91426 | 36772 ft | 443 kts | 46° |
| 2026-04-25 01:52 | 3.13676 | -75.87093 | 36693 ft | 443 kts | 46° |
| 2026-04-25 01:52 | 3.18204 | -75.82812 | 36599 ft | 442 kts | 46° |
| 2026-04-25 01:53 | 3.22678 | -75.78568 | 36578 ft | 442 kts | 47° |
| 2026-04-25 01:53 | 3.27150 | -75.74317 | 36520 ft | 442 kts | 46° |
| 2026-04-25 01:54 | 3.31603 | -75.70081 | 36487 ft | 442 kts | 47° |
| 2026-04-25 01:54 | 3.36048 | -75.65854 | 36435 ft | 442 kts | 46° |
| 2026-04-25 01:55 | 3.40523 | -75.61595 | 36393 ft | 442 kts | 47° |
| 2026-04-25 01:55 | 3.44986 | -75.57349 | 36321 ft | 441 kts | 47° |
| 2026-04-25 01:56 | 3.49432 | -75.53117 | 36264 ft | 441 kts | 46° |
| 2026-04-25 01:56 | 3.53868 | -75.48895 | 36197 ft | 441 kts | 47° |
| 2026-04-25 01:57 | 3.60537 | -75.42544 | 36191 ft | 441 kts | 47° |
| 2026-04-25 01:58 | 3.64995 | -75.38300 | 36169 ft | 440 kts | 47° |
| 2026-04-25 01:58 | 3.69420 | -75.34084 | 36157 ft | 440 kts | 47° |
| 2026-04-25 01:59 | 3.73895 | -75.29793 | 36128 ft | 439 kts | 47° |
| 2026-04-25 01:59 | 3.78341 | -75.25543 | 36048 ft | 439 kts | 47° |
| 2026-04-25 02:00 | 3.82755 | -75.21331 | 36067 ft | 439 kts | 47° |
| 2026-04-25 02:00 | 3.87175 | -75.17117 | 36043 ft | 439 kts | 47° |
| 2026-04-25 02:01 | 3.91620 | -75.12881 | 36011 ft | 439 kts | 47° |
| 2026-04-25 02:01 | 3.96045 | -75.08663 | 35989 ft | 438 kts | 47° |
| 2026-04-25 02:01 | 3.98241 | -75.06570 | 35729 ft | 437 kts | 47° |
| 2026-04-25 02:02 | 4.00439 | -75.04473 | 34759 ft | 445 kts | 47° |
| 2026-04-25 02:02 | 4.02717 | -75.02302 | 33665 ft | 451 kts | 47° |
| 2026-04-25 02:02 | 4.04973 | -75.00150 | 32723 ft | 454 kts | 47° |
| 2026-04-25 02:02 | 4.07266 | -74.97962 | 31887 ft | 456 kts | 47° |
| 2026-04-25 02:03 | 4.09579 | -74.95750 | 31071 ft | 457 kts | 47° |
| 2026-04-25 02:03 | 4.11900 | -74.93541 | 30270 ft | 457 kts | 46° |
| 2026-04-25 02:03 | 4.14292 | -74.91272 | 29436 ft | 456 kts | 46° |
| 2026-04-25 02:03 | 4.16624 | -74.89081 | 28571 ft | 457 kts | 44° |
| 2026-04-25 02:04 | 4.19263 | -74.87279 | 27614 ft | 465 kts | 29° |
| 2026-04-25 02:04 | 4.22304 | -74.86184 | 26803 ft | 467 kts | 14° |
| 2026-04-25 02:04 | 4.25508 | -74.85687 | 26300 ft | 460 kts | 9° |
| 2026-04-25 02:04 | 4.28672 | -74.85286 | 25914 ft | 450 kts | 9° |
| 2026-04-25 02:05 | 4.31769 | -74.84895 | 25235 ft | 448 kts | 8° |
| 2026-04-25 02:05 | 4.34867 | -74.84500 | 24523 ft | 446 kts | 9° |
| 2026-04-25 02:05 | 4.37920 | -74.84103 | 23993 ft | 440 kts | 8° |
| 2026-04-25 02:05 | 4.40958 | -74.83705 | 23546 ft | 432 kts | 8° |
| 2026-04-25 02:06 | 4.43893 | -74.83321 | 23112 ft | 425 kts | 8° |
| 2026-04-25 02:06 | 4.46831 | -74.82936 | 22673 ft | 418 kts | 8° |
| 2026-04-25 02:06 | 4.49658 | -74.82565 | 22470 ft | 405 kts | 8° |
| 2026-04-25 02:06 | 4.52419 | -74.82203 | 22269 ft | 393 kts | 8° |
| 2026-04-25 02:07 | 4.55122 | -74.81847 | 22075 ft | 381 kts | 8° |
| 2026-04-25 02:07 | 4.57716 | -74.81503 | 21783 ft | 374 kts | 8° |
| 2026-04-25 02:07 | 4.60298 | -74.81161 | 21336 ft | 371 kts | 8° |
| 2026-04-25 02:07 | 4.62853 | -74.80823 | 20856 ft | 370 kts | 8° |
| 2026-04-25 02:08 | 4.65396 | -74.80486 | 20388 ft | 367 kts | 8° |
| 2026-04-25 02:08 | 4.67952 | -74.80147 | 19970 ft | 364 kts | 8° |
| 2026-04-25 02:08 | 4.70442 | -74.79818 | 19533 ft | 361 kts | 7° |
| 2026-04-25 02:08 | 4.72932 | -74.79488 | 19114 ft | 359 kts | 7° |
| 2026-04-25 02:09 | 4.75404 | -74.79184 | 18645 ft | 356 kts | 4° |
| 2026-04-25 02:09 | 4.77868 | -74.79156 | 18160 ft | 354 kts | 356° |
| 2026-04-25 02:09 | 4.80302 | -74.79424 | 17734 ft | 351 kts | 352° |
| 2026-04-25 02:09 | 4.82709 | -74.79765 | 17523 ft | 340 kts | 352° |
| 2026-04-25 02:10 | 4.85020 | -74.80100 | 17360 ft | 330 kts | 352° |
| 2026-04-25 02:10 | 4.87252 | -74.80421 | 17113 ft | 322 kts | 352° |
| 2026-04-25 02:10 | 4.89467 | -74.80736 | 16837 ft | 317 kts | 351° |
| 2026-04-25 02:10 | 4.91685 | -74.81050 | 16769 ft | 320 kts | 352° |
| 2026-04-25 02:11 | 4.93892 | -74.81270 | 16728 ft | 320 kts | 360° |
| 2026-04-25 02:11 | 4.96124 | -74.81046 | 16740 ft | 321 kts | 12° |
| 2026-04-25 02:11 | 4.98287 | -74.80443 | 16757 ft | 322 kts | 17° |
| 2026-04-25 02:11 | 5.00431 | -74.79713 | 16652 ft | 324 kts | 24° |
| 2026-04-25 02:12 | 5.02194 | -74.78352 | 16356 ft | 321 kts | 53° |
| 2026-04-25 02:12 | 5.03102 | -74.76325 | 16110 ft | 322 kts | 78° |
| 2026-04-25 02:12 | 5.03150 | -74.74083 | 15847 ft | 323 kts | 99° |
| 2026-04-25 02:12 | 5.02471 | -74.71947 | 15619 ft | 324 kts | 110° |
| 2026-04-25 02:13 | 5.01642 | -74.69852 | 15398 ft | 323 kts | 110° |
| 2026-04-25 02:13 | 5.00833 | -74.67772 | 15141 ft | 317 kts | 110° |
| 2026-04-25 02:13 | 5.00065 | -74.65749 | 14916 ft | 309 kts | 109° |
| 2026-04-25 02:13 | 4.99323 | -74.63752 | 14621 ft | 305 kts | 109° |
| 2026-04-25 02:14 | 4.98589 | -74.61752 | 14267 ft | 304 kts | 109° |
| 2026-04-25 02:14 | 4.97865 | -74.59764 | 13920 ft | 303 kts | 109° |
| 2026-04-25 02:14 | 4.97152 | -74.57800 | 13619 ft | 301 kts | 109° |
| 2026-04-25 02:14 | 4.96440 | -74.55834 | 13265 ft | 299 kts | 109° |
| 2026-04-25 02:15 | 4.95728 | -74.53866 | 12945 ft | 295 kts | 109° |
| 2026-04-25 02:15 | 4.95034 | -74.51951 | 12889 ft | 294 kts | 109° |
| 2026-04-25 02:15 | 4.94338 | -74.50030 | 12872 ft | 295 kts | 109° |
| 2026-04-25 02:15 | 4.93639 | -74.48099 | 12893 ft | 295 kts | 109° |
| 2026-04-25 02:16 | 4.92935 | -74.46159 | 12907 ft | 296 kts | 109° |
| 2026-04-25 02:16 | 4.92225 | -74.44202 | 12937 ft | 296 kts | 109° |
| 2026-04-25 02:16 | 4.91488 | -74.42293 | 12948 ft | 289 kts | 114° |
| 2026-04-25 02:16 | 4.90516 | -74.40566 | 12972 ft | 287 kts | 123° |
| 2026-04-25 02:17 | 4.89330 | -74.38943 | 13004 ft | 287 kts | 126° |
| 2026-04-25 02:17 | 4.88115 | -74.37363 | 13042 ft | 279 kts | 126° |
| 2026-04-25 02:17 | 4.86971 | -74.35877 | 13046 ft | 264 kts | 126° |
| 2026-04-25 02:17 | 4.85857 | -74.34416 | 13055 ft | 262 kts | 126° |
| 2026-04-25 02:18 | 4.84750 | -74.32943 | 12880 ft | 264 kts | 126° |
| 2026-04-25 02:18 | 4.83644 | -74.31469 | 12500 ft | 266 kts | 126° |
| 2026-04-25 02:18 | 4.82531 | -74.29993 | 12091 ft | 270 kts | 126° |
| 2026-04-25 02:18 | 4.81449 | -74.28561 | 11664 ft | 274 kts | 126° |
| 2026-04-25 02:19 | 4.80296 | -74.27039 | 11231 ft | 276 kts | 127° |
| 2026-04-25 02:19 | 4.79139 | -74.25511 | 10779 ft | 270 kts | 127° |
| 2026-04-25 02:19 | 4.78021 | -74.24035 | 10385 ft | 263 kts | 127° |
| 2026-04-25 02:19 | 4.76933 | -74.22598 | 10044 ft | 254 kts | 127° |
| 2026-04-25 02:20 | 4.75886 | -74.21214 | 9743 ft | 245 kts | 127° |
| 2026-04-25 02:20 | 4.74893 | -74.19902 | 9531 ft | 227 kts | 127° |
| 2026-04-25 02:20 | 4.73955 | -74.18663 | 9196 ft | 216 kts | 127° |
| 2026-04-25 02:20 | 4.73085 | -74.17514 | 8928 ft | 203 kts | 127° |
| 2026-04-25 02:21 | 4.72260 | -74.16423 | 8681 ft | 189 kts | 127° |
| 2026-04-25 02:21 | 4.71492 | -74.15407 | 8521 ft | 181 kts | 127° |
| 2026-04-25 02:21 | 4.70707 | -74.14360 | 9066 ft | 192 kts | 127° |
| 2026-04-25 02:21 | 4.69905 | -74.13294 | 9907 ft | 195 kts | 127° |
| 2026-04-25 02:22 | 4.69080 | -74.12199 | 10540 ft | 200 kts | 127° |
| 2026-04-25 02:22 | 4.68264 | -74.11021 | 10947 ft | 213 kts | 113° |
| 2026-04-25 02:22 | 4.68094 | -74.09540 | 11320 ft | 224 kts | 76° |
| 2026-04-25 02:22 | 4.68870 | -74.08189 | 11702 ft | 234 kts | 41° |
| 2026-04-25 02:23 | 4.70210 | -74.07201 | 12068 ft | 247 kts | 34° |
| 2026-04-25 02:23 | 4.71637 | -74.06184 | 12388 ft | 251 kts | 32° |
| 2026-04-25 02:23 | 4.73233 | -74.05502 | 12741 ft | 250 kts | 8° |
| 2026-04-25 02:23 | 4.74957 | -74.05501 | 13041 ft | 250 kts | 352° |
| 2026-04-25 02:24 | 4.76713 | -74.05759 | 13079 ft | 252 kts | 351° |
| 2026-04-25 02:24 | 4.78450 | -74.06028 | 13083 ft | 252 kts | 352° |
| 2026-04-25 02:24 | 4.80173 | -74.06287 | 13085 ft | 251 kts | 351° |
| 2026-04-25 02:24 | 4.81849 | -74.06789 | 13077 ft | 251 kts | 331° |
| 2026-04-25 02:25 | 4.83215 | -74.07880 | 13078 ft | 252 kts | 310° |
| 2026-04-25 02:25 | 4.84259 | -74.09306 | 13083 ft | 254 kts | 306° |
| 2026-04-25 02:25 | 4.85263 | -74.10772 | 13079 ft | 255 kts | 305° |
| 2026-04-25 02:25 | 4.86262 | -74.12228 | 13074 ft | 255 kts | 305° |
| 2026-04-25 02:26 | 4.87284 | -74.13706 | 13073 ft | 254 kts | 306° |
| 2026-04-25 02:26 | 4.88288 | -74.15147 | 13072 ft | 254 kts | 306° |
| 2026-04-25 02:26 | 4.89308 | -74.16605 | 13070 ft | 254 kts | 306° |
| 2026-04-25 02:26 | 4.90316 | -74.18044 | 13059 ft | 253 kts | 306° |
| 2026-04-25 02:27 | 4.91336 | -74.19495 | 13056 ft | 253 kts | 306° |
| 2026-04-25 02:27 | 4.92349 | -74.20939 | 13068 ft | 253 kts | 306° |
| 2026-04-25 02:27 | 4.93376 | -74.22401 | 13091 ft | 254 kts | 306° |
| 2026-04-25 02:27 | 4.94393 | -74.23850 | 13094 ft | 253 kts | 306° |
| 2026-04-25 02:28 | 4.95400 | -74.25281 | 13106 ft | 254 kts | 306° |
| 2026-04-25 02:28 | 4.96421 | -74.26735 | 13104 ft | 254 kts | 306° |
| 2026-04-25 02:28 | 4.97440 | -74.28186 | 13098 ft | 254 kts | 306° |
| 2026-04-25 02:28 | 4.98463 | -74.29639 | 13086 ft | 255 kts | 306° |
| 2026-04-25 02:29 | 4.99484 | -74.31094 | 13079 ft | 255 kts | 306° |
| 2026-04-25 02:29 | 5.00502 | -74.32561 | 13057 ft | 256 kts | 302° |
| 2026-04-25 02:29 | 5.01147 | -74.34234 | 13039 ft | 257 kts | 278° |
| 2026-04-25 02:29 | 5.01098 | -74.36000 | 13029 ft | 258 kts | 257° |
| 2026-04-25 02:30 | 5.00389 | -74.37655 | 13024 ft | 259 kts | 236° |
| 2026-04-25 02:30 | 4.99120 | -74.38940 | 13021 ft | 261 kts | 214° |
| 2026-04-25 02:30 | 4.97466 | -74.39696 | 13019 ft | 262 kts | 198° |
| 2026-04-25 02:30 | 4.95717 | -74.40218 | 13018 ft | 263 kts | 197° |
| 2026-04-25 02:31 | 4.93949 | -74.40726 | 13007 ft | 263 kts | 195° |
| 2026-04-25 02:31 | 4.92126 | -74.40908 | 12998 ft | 262 kts | 169° |
| 2026-04-25 02:31 | 4.90447 | -74.40243 | 13002 ft | 260 kts | 142° |
| 2026-04-25 02:31 | 4.89161 | -74.38983 | 13042 ft | 260 kts | 127° |
| 2026-04-25 02:32 | 4.88089 | -74.37521 | 13057 ft | 261 kts | 124° |
| 2026-04-25 02:32 | 4.87062 | -74.36052 | 12912 ft | 257 kts | 124° |
| 2026-04-25 02:32 | 4.86022 | -74.34599 | 12628 ft | 255 kts | 125° |
| 2026-04-25 02:32 | 4.84967 | -74.33170 | 12311 ft | 249 kts | 126° |
| 2026-04-25 02:33 | 4.83944 | -74.31814 | 12024 ft | 240 kts | 126° |
| 2026-04-25 02:33 | 4.82936 | -74.30489 | 11786 ft | 240 kts | 127° |
| 2026-04-25 02:33 | 4.81922 | -74.29159 | 11502 ft | 239 kts | 127° |
| 2026-04-25 02:33 | 4.80918 | -74.27841 | 11220 ft | 238 kts | 127° |
| 2026-04-25 02:34 | 4.79914 | -74.26520 | 11057 ft | 238 kts | 127° |
| 2026-04-25 02:34 | 4.78901 | -74.25186 | 10714 ft | 238 kts | 127° |
| 2026-04-25 02:34 | 4.77905 | -74.23874 | 10386 ft | 235 kts | 127° |
| 2026-04-25 02:34 | 4.76931 | -74.22589 | 10061 ft | 229 kts | 127° |
| 2026-04-25 02:35 | 4.76012 | -74.21377 | 9802 ft | 208 kts | 127° |
| 2026-04-25 02:35 | 4.75157 | -74.20249 | 9531 ft | 195 kts | 127° |
| 2026-04-25 02:35 | 4.74372 | -74.19211 | 9297 ft | 180 kts | 127° |
| 2026-04-25 02:35 | 4.73650 | -74.18259 | 9066 ft | 164 kts | 127° |
| 2026-04-25 02:36 | 4.72972 | -74.17362 | 8878 ft | 159 kts | 127° |
| 2026-04-25 02:36 | 4.72302 | -74.16482 | 8698 ft | 159 kts | 127° |
| 2026-04-25 02:36 | 4.71631 | -74.15598 | 8491 ft | 157 kts | 126° |
| 2026-04-25 02:36 | 4.70977 | -74.14726 | 8372 ft | 151 kts | 127° |
| 2026-04-25 02:37 | 4.70424 | -74.13996 | 8370 ft | 108 kts | 127° |
| 2026-04-25 02:37 | 4.70075 | -74.13534 | 8368 ft | 67 kts | 128° |
| 2026-04-25 02:37 | 4.69860 | -74.13323 | 8367 ft | 19 kts | 163° |
| 2026-04-25 02:37 | 4.69745 | -74.13302 | 8368 ft | 4 kts | 171° |
| 2026-04-25 02:39 | 4.69703 | -74.13296 | 8368 ft | 10 kts | 186° |
| 2026-04-25 02:39 | 4.69689 | -74.13354 | 8368 ft | 10 kts | 303° |
| 2026-04-25 02:39 | 4.69735 | -74.13417 | 8368 ft | 11 kts | 306° |
| 2026-04-25 02:40 | 4.69785 | -74.13484 | 8368 ft | 13 kts | 307° |
| 2026-04-25 02:40 | 4.69848 | -74.13566 | 8369 ft | 16 kts | 308° |
| 2026-04-25 02:40 | 4.69922 | -74.13663 | 8369 ft | 18 kts | 307° |
| 2026-04-25 02:40 | 4.69964 | -74.13718 | 8369 ft | 19 kts | 307° |